»·PEaware :: N6182G KSAN-KVNY

N6182G :: KSAN-KVNY

FLIGHT INFORMATION

Flight Status: Arrived
Operator: Privately registered:
United States
More flights under this callsign
Pilot: Matthew M. (8235)
Aircraft: CESSNA 182 SKYLANE
(C182)
More flights by this aircraft type
Origin: KSAN San Diego Intl-Lindbergh
United States
Destination: KVNY Van Nuys
United States
More flights between these airports :: More routes between these airports
Route: +OVN V23 POPPR SMO125 SMO SMO317 CANOG
File this flight plan on PilotEdge
Remarks:
Altitude:
(Current/Filed)
4,000ft
Speed:
(Current/Filed)
120kts
Departed: 01-Aug-20 10:10 AM
Arrived: 01-Aug-20 10:56 AM
Distance/Time
Traveled:
110nm/0:46
Distance/Time
To Go:
Arrived

Flight Plot

Page will automatically refresh every two minutes.


Map Options




Map Legend


Flown Route
Filed Route
Departure Airport
Arrival Airport
Navaid (VOR, NDB)
Fix

Horizontal Profiles

Position Reports

Time Latitude Longitude Heading Altitude Ground
Speed
01-Aug-20 10:08 33.108627 -117.390316 349 4011ft 133kts
01-Aug-20 10:09 33.145189 -117.397854 349 4019ft 133kts
01-Aug-20 10:10 33.181745 -117.405458 349 4021ft 133kts
01-Aug-20 10:11 33.218317 -117.412848 349 4022ft 133kts
01-Aug-20 10:12 33.252157 -117.424680 311 4479ft 129kts
01-Aug-20 10:13 33.275526 -117.457011 311 4972ft 126kts
01-Aug-20 10:14 33.300918 -117.485401 314 5460ft 123kts
01-Aug-20 10:15 33.325864 -117.513359 314 5946ft 122kts
01-Aug-20 10:16 33.351080 -117.541674 314 6012ft 126kts
01-Aug-20 10:17 33.377314 -117.570709 317 6011ft 129kts
01-Aug-20 10:18 33.404236 -117.600260 314 6020ft 133kts
01-Aug-20 10:19 33.432245 -117.631653 315 6018ft 144kts
01-Aug-20 10:20 33.460201 -117.663073 314 6008ft 131kts
01-Aug-20 10:21 33.486755 -117.692927 314 6013ft 130kts
01-Aug-20 10:22 33.514337 -117.724033 314 6022ft 143kts
01-Aug-20 10:23 33.543091 -117.756661 314 6009ft 142kts
01-Aug-20 10:24 33.570679 -117.787804 314 6002ft 132kts
01-Aug-20 10:25 33.593480 -117.820312 290 6021ft 126kts
01-Aug-20 10:26 33.606895 -117.861066 291 6002ft 138kts
01-Aug-20 10:27 33.621336 -117.904517 291 6010ft 143kts
01-Aug-20 10:28 33.635256 -117.946436 291 5997ft 129kts
01-Aug-20 10:29 33.648697 -117.986945 291 6020ft 138kts
01-Aug-20 10:30 33.662584 -118.028952 291 6009ft 134kts
01-Aug-20 10:31 33.675962 -118.069459 291 6006ft 127kts
01-Aug-20 10:32 33.688884 -118.108581 291 6014ft 125kts
01-Aug-20 10:33 33.701839 -118.147687 291 6015ft 125kts
01-Aug-20 10:34 33.722819 -118.181061 313 6012ft 127kts
01-Aug-20 10:35 33.749254 -118.208782 317 6011ft 127kts
01-Aug-20 10:36 33.777165 -118.235686 318 5612ft 125kts
01-Aug-20 10:37 33.804559 -118.262026 319 5116ft 127kts
01-Aug-20 10:38 33.833430 -118.289597 320 4662ft 138kts
01-Aug-20 10:39 33.863846 -118.318559 321 4146ft 140kts
01-Aug-20 10:40 33.893480 -118.342766 325 4006ft 121kts
01-Aug-20 10:41 33.923407 -118.370888 320 4006ft 147kts
01-Aug-20 10:42 33.955157 -118.402202 319 4005ft 148kts
01-Aug-20 10:43 33.986718 -118.433498 319 3994ft 148kts
01-Aug-20 10:44 34.017457 -118.464223 312 3980ft 142kts
01-Aug-20 10:45 34.043567 -118.500687 311 3991ft 146kts
01-Aug-20 10:46 34.069913 -118.537037 311 3982ft 143kts
01-Aug-20 10:47 34.095461 -118.572202 311 3977ft 137kts
01-Aug-20 10:48 34.124983 -118.594587 11 3999ft 136kts
01-Aug-20 10:49 34.162171 -118.584247 14 3996ft 133kts
01-Aug-20 10:50 34.193594 -118.562982 26 3111ft 125kts
01-Aug-20 10:51 34.222881 -118.547646 23 2459ft 112kts
01-Aug-20 10:52 34.237169 -118.522540 92 2225ft 86kts
01-Aug-20 10:53 34.232499 -118.497448 125 1553ft 73kts
01-Aug-20 10:54 34.215024 -118.490900 175 809ft 47kts
01-Aug-20 10:55 34.213488 -118.491812 349 805ft 23kts
01-Aug-20 10:56 34.215794 -118.493135 356 805ft 0kts
01-Aug-20 10:57 34.215794 -118.493135 356 805ft 0kts
01-Aug-20 10:58 34.215794 -118.493135 356 805ft 0kts
01-Aug-20 10:59 34.215794 -118.493135 356 805ft 0kts
01-Aug-20 11:00 34.215794 -118.493135 356 805ft 0kts
01-Aug-20 11:01 34.215794 -118.493135 356 805ft 0kts
01-Aug-20 11:02 34.215794 -118.493135 356 805ft 0kts
01-Aug-20 11:03 34.215794 -118.493135 356 805ft 0kts
01-Aug-20 11:04 34.215794 -118.493135 356 805ft 0kts
01-Aug-20 11:05 34.215794 -118.493135 356 805ft 0kts
01-Aug-20 11:06 34.215794 -118.493135 356 805ft 0kts
01-Aug-20 11:07 34.215794 -118.493135 356 805ft 0kts
01-Aug-20 11:08 34.215794 -118.493135 356 805ft 0kts
01-Aug-20 11:09 34.215794 -118.493135 356 805ft 0kts

Navigation Log

Ident Type
Flight plan parsing failed, navigation log unavailable